Time;durP1;ratioP1;P1;durP2;ratioP2;P2;SDS_P1;SDS_P2;PMS_P1;PMS_P2;Temp;Humidity;BMP_temperature;BMP_pressure;BME280_temperature;BME280_humidity;BME280_pressure;Samples;Min_cycle;Max_cycle;Signal;HPM_P1;HPM_P2
2021/10/14 00:00:57;;;;;;;3.97;3.22;;;5.80;99.90;;;;;;5013416;28;20031;-79
2021/10/14 00:03:22;;;;;;;5.65;3.35;;;5.80;99.90;;;;;;4981827;28;20130;-79
2021/10/14 00:05:48;;;;;;;6.40;3.80;;;5.70;99.90;;;;;;4988337;28;20037;-80
2021/10/14 00:08:14;;;;;;;5.75;4.20;;;5.70;99.90;;;;;;4987576;28;20062;-77
2021/10/14 00:10:40;;;;;;;6.22;3.88;;;5.70;99.90;;;;;;4988478;28;20050;-78
2021/10/14 00:13:06;;;;;;;5.38;4.13;;;5.70;99.90;;;;;;5005885;28;20153;-79
2021/10/14 00:15:32;;;;;;;5.07;3.33;;;5.60;99.90;;;;;;5013744;28;20034;-78
2021/10/14 00:17:59;;;;;;;7.35;3.65;;;5.60;99.90;;;;;;5005571;28;20109;-77
2021/10/14 00:20:25;;;;;;;4.75;3.58;;;5.50;99.90;;;;;;4993996;28;20030;-78
2021/10/14 00:22:51;;;;;;;7.80;4.22;;;5.50;99.90;;;;;;4994795;28;20027;-79
2021/10/14 00:25:19;;;;;;;4.93;4.20;;;5.50;99.90;;;;;;4995913;28;20045;-79
2021/10/14 00:27:46;;;;;;;7.53;4.70;;;5.50;99.90;;;;;;4994012;28;20104;-79
2021/10/14 00:30:11;;;;;;;7.78;4.22;;;5.50;99.90;;;;;;4998228;28;20102;-79
2021/10/14 00:32:37;;;;;;;6.45;4.13;;;5.40;99.90;;;;;;5002454;28;20077;-79
2021/10/14 00:35:07;;;;;;;5.43;3.60;;;5.40;99.90;;;;;;4999008;28;20037;-78
2021/10/14 00:37:32;;;;;;;4.22;3.67;;;5.50;99.90;;;;;;4996579;28;20053;-78
2021/10/14 00:39:58;;;;;;;4.32;3.22;;;5.50;99.90;;;;;;4993749;28;20027;-76
2021/10/14 00:42:24;;;;;;;4.95;3.50;;;5.50;99.90;;;;;;5002171;28;20022;-78
2021/10/14 00:44:55;;;;;;;5.65;4.05;;;5.50;99.90;;;;;;5013465;28;20176;-80
2021/10/14 00:47:26;;;;;;;6.07;4.03;;;5.50;99.90;;;;;;5020926;28;20132;-79
2021/10/14 00:49:53;;;;;;;5.28;4.20;;;5.50;99.90;;;;;;5022180;28;20097;-79
2021/10/14 00:52:19;;;;;;;4.93;4.18;;;5.40;99.90;;;;;;5002411;28;20039;-79
2021/10/14 00:54:50;;;;;;;4.07;3.53;;;5.50;99.90;;;;;;4982652;28;20122;-79
2021/10/14 00:57:17;;;;;;;7.45;4.05;;;5.40;99.90;;;;;;5002829;28;20015;-80
2021/10/14 00:59:50;;;;;;;5.75;4.10;;;5.50;99.90;;;;;;5112270;27;20826;-78
2021/10/14 01:02:16;;;;;;;4.68;3.78;;;5.50;99.90;;;;;;5118890;28;20035;-80
2021/10/14 01:04:41;;;;;;;5.30;3.58;;;5.60;99.90;;;;;;5143797;28;20023;-79
2021/10/14 01:07:07;;;;;;;5.38;4.53;;;5.60;99.90;;;;;;5144447;28;20016;-79
2021/10/14 01:09:33;;;;;;;4.80;3.60;;;5.50;99.90;;;;;;5143463;28;20034;-79
2021/10/14 01:12:03;;;;;;;5.22;3.85;;;5.50;99.90;;;;;;5142574;28;20031;-80
2021/10/14 01:14:30;;;;;;;4.80;3.83;;;5.50;99.90;;;;;;5132584;28;20288;-79
2021/10/14 01:16:57;;;;;;;4.47;3.33;;;5.40;99.90;;;;;;5152970;27;20008;-79
2021/10/14 01:19:23;;;;;;;6.43;3.88;;;5.40;99.90;;;;;;5134490;28;20043;-79
2021/10/14 01:21:49;;;;;;;5.38;3.72;;;5.30;99.90;;;;;;5129154;28;20390;-78
2021/10/14 01:24:16;;;;;;;5.03;3.63;;;5.30;99.90;;;;;;5142678;28;20024;-78
2021/10/14 01:26:42;;;;;;;5.43;4.20;;;5.20;99.90;;;;;;5148873;28;20080;-80
2021/10/14 01:29:08;;;;;;;4.65;3.60;;;5.20;99.90;;;;;;5131481;28;20027;-79
2021/10/14 01:31:34;;;;;;;5.07;3.60;;;5.10;99.90;;;;;;5148170;28;20027;-79
2021/10/14 01:34:00;;;;;;;6.80;4.90;;;5.10;99.90;;;;;;5143043;28;20054;-79
2021/10/14 01:36:26;;;;;;;6.25;4.85;;;5.10;99.90;;;;;;5123390;28;20038;-79
2021/10/14 01:38:52;;;;;;;5.07;3.70;;;5.00;99.90;;;;;;5121695;28;20095;-79
2021/10/14 01:41:18;;;;;;;6.05;4.72;;;5.10;99.90;;;;;;5125886;27;20011;-79
2021/10/14 01:43:44;;;;;;;6.60;4.78;;;5.00;99.90;;;;;;5143242;22;20044;-81
2021/10/14 01:46:10;;;;;;;6.18;4.00;;;5.00;99.90;;;;;;5059843;28;20037;-80
2021/10/14 01:48:36;;;;;;;8.85;4.72;;;5.00;99.90;;;;;;5032307;28;20030;-82
2021/10/14 01:51:03;;;;;;;5.00;3.63;;;5.00;99.90;;;;;;5034978;28;20262;-83
2021/10/14 01:53:29;;;;;;;6.35;5.00;;;5.00;99.90;;;;;;5033835;28;20033;-79
2021/10/14 01:55:55;;;;;;;5.35;3.80;;;4.90;99.90;;;;;;5031666;28;20539;-81
2021/10/14 01:58:21;;;;;;;8.02;4.47;;;4.90;99.90;;;;;;5032988;28;20029;-80
2021/10/14 02:00:49;;;;;;;6.15;4.55;;;4.90;99.90;;;;;;5036158;28;20029;-81
2021/10/14 02:03:15;;;;;;;5.55;4.00;;;4.90;99.90;;;;;;5059544;28;20413;-81
2021/10/14 02:05:41;;;;;;;5.93;4.25;;;4.90;99.90;;;;;;5045924;28;20170;-81
2021/10/14 02:08:07;;;;;;;7.45;5.03;;;4.90;99.90;;;;;;5042831;28;20029;-81
2021/10/14 02:10:33;;;;;;;9.93;5.32;;;4.80;99.90;;;;;;5044842;28;20064;-81
2021/10/14 02:12:59;;;;;;;6.75;4.57;;;4.80;99.90;;;;;;5040466;28;20040;-81
2021/10/14 02:15:26;;;;;;;6.32;4.78;;;4.90;99.90;;;;;;5040350;28;20025;-80
2021/10/14 02:17:52;;;;;;;8.05;5.45;;;4.90;99.90;;;;;;5024250;28;20072;-79
2021/10/14 02:20:18;;;;;;;6.03;4.38;;;5.00;99.90;;;;;;5047535;28;20030;-82
2021/10/14 02:22:44;;;;;;;7.55;5.22;;;4.90;99.90;;;;;;5041623;28;20079;-81
2021/10/14 02:25:11;;;;;;;7.40;4.32;;;5.00;99.90;;;;;;5048046;28;20032;-81
2021/10/14 02:27:37;;;;;;;5.85;4.13;;;5.10;99.90;;;;;;5054117;28;20021;-81
2021/10/14 02:30:08;;;;;;;6.75;4.55;;;5.10;99.90;;;;;;5058052;28;20040;-81
2021/10/14 02:32:34;;;;;;;7.25;4.80;;;5.20;99.90;;;;;;5028271;28;20028;-83
2021/10/14 02:35:00;;;;;;;6.55;5.00;;;5.10;99.90;;;;;;5023675;28;20025;-83
2021/10/14 02:37:27;;;;;;;8.10;5.53;;;5.10;99.90;;;;;;5040191;28;20124;-83
2021/10/14 02:39:53;;;;;;;9.38;5.55;;;5.10;99.90;;;;;;5040106;28;20081;-83
2021/10/14 02:42:19;;;;;;;7.93;5.28;;;5.10;99.90;;;;;;5053532;28;20068;-82
2021/10/14 02:44:45;;;;;;;7.80;5.18;;;5.10;99.90;;;;;;5042997;28;20049;-82
2021/10/14 02:47:11;;;;;;;6.75;5.55;;;5.10;99.90;;;;;;5043553;28;20099;-82
2021/10/14 02:49:37;;;;;;;8.73;5.65;;;5.10;99.90;;;;;;5039599;28;20482;-82
2021/10/14 02:52:03;;;;;;;6.65;5.00;;;5.20;99.90;;;;;;5039962;28;20026;-82
2021/10/14 02:54:30;;;;;;;5.72;4.55;;;5.30;99.90;;;;;;5040280;28;20104;-81
2021/10/14 02:56:55;;;;;;;6.80;4.70;;;5.30;99.90;;;;;;5041079;28;20486;-82
2021/10/14 02:59:21;;;;;;;5.28;4.28;;;5.30;99.90;;;;;;5039181;28;20083;-82
2021/10/14 03:01:47;;;;;;;5.57;4.25;;;5.30;99.90;;;;;;5021853;28;20091;-82
2021/10/14 03:04:13;;;;;;;5.82;4.05;;;5.30;99.90;;;;;;5043479;28;20561;-82
2021/10/14 03:06:38;;;;;;;4.70;4.20;;;5.30;99.90;;;;;;5039927;28;20046;-83
2021/10/14 03:09:04;;;;;;;8.60;4.80;;;5.40;99.90;;;;;;5022024;28;20029;-82
2021/10/14 03:11:30;;;;;;;7.35;4.40;;;5.40;99.90;;;;;;5040943;28;20267;-82
2021/10/14 03:13:56;;;;;;;6.78;4.45;;;5.40;99.90;;;;;;5052972;28;20013;-83
2021/10/14 03:16:23;;;;;;;6.07;4.55;;;5.40;99.90;;;;;;5040974;28;20120;-82
2021/10/14 03:18:49;;;;;;;7.72;5.25;;;5.50;99.90;;;;;;5052842;28;20071;-81
2021/10/14 03:21:16;;;;;;;7.43;4.90;;;5.40;99.90;;;;;;5038772;28;20017;-81
2021/10/14 03:23:41;;;;;;;6.45;4.88;;;5.40;99.90;;;;;;5057300;28;20079;-81
2021/10/14 03:26:07;;;;;;;6.53;4.68;;;5.40;99.90;;;;;;5052385;28;20018;-81
2021/10/14 03:28:33;;;;;;;8.00;5.43;;;5.40;99.90;;;;;;5022419;28;20441;-81
2021/10/14 03:30:59;;;;;;;7.47;5.15;;;5.40;99.90;;;;;;5020624;28;20053;-82
2021/10/14 03:33:24;;;;;;;7.80;5.22;;;5.40;99.90;;;;;;5039700;28;20076;-82
2021/10/14 03:35:50;;;;;;;6.40;5.10;;;5.40;99.90;;;;;;5040016;28;20036;-82
2021/10/14 03:38:16;;;;;;;6.80;4.80;;;5.40;99.90;;;;;;5038141;28;20538;-82
2021/10/14 03:40:42;;;;;;;7.60;5.75;;;5.50;99.90;;;;;;5037350;28;20032;-82
2021/10/14 03:43:07;;;;;;;7.97;5.47;;;5.60;99.90;;;;;;5049087;28;20021;-81
2021/10/14 03:45:33;;;;;;;7.95;5.30;;;5.50;99.90;;;;;;5038823;28;20040;-80
2021/10/14 03:47:59;;;;;;;7.80;5.32;;;5.60;99.90;;;;;;5037518;28;20060;-82
2021/10/14 03:50:25;;;;;;;7.97;6.10;;;5.60;99.90;;;;;;5020572;28;20161;-82
2021/10/14 03:52:50;;;;;;;9.52;6.10;;;5.70;99.90;;;;;;5038671;28;20065;-82
2021/10/14 03:55:16;;;;;;;8.57;6.10;;;5.70;99.90;;;;;;5019582;28;20454;-81
2021/10/14 03:57:42;;;;;;;10.02;5.20;;;5.70;99.90;;;;;;5038830;28;20316;-82
2021/10/14 04:00:09;;;;;;;8.63;5.93;;;5.70;99.90;;;;;;5022239;28;20021;-81
2021/10/14 04:02:35;;;;;;;8.77;5.90;;;5.70;99.90;;;;;;5022433;28;20040;-81
2021/10/14 04:05:01;;;;;;;8.85;6.05;;;5.70;99.90;;;;;;5040544;28;20030;-80
2021/10/14 04:07:27;;;;;;;8.75;6.07;;;5.70;99.90;;;;;;5041479;28;20032;-81
2021/10/14 04:09:53;;;;;;;8.77;6.45;;;5.70;99.90;;;;;;5020532;28;20022;-81
2021/10/14 04:12:19;;;;;;;9.52;5.90;;;5.70;99.90;;;;;;5051137;28;20079;-81
2021/10/14 04:14:44;;;;;;;10.90;6.30;;;5.70;99.90;;;;;;5041988;28;20091;-81
2021/10/14 04:17:10;;;;;;;12.52;7.63;;;5.70;99.90;;;;;;5037054;28;20018;-80
2021/10/14 04:19:36;;;;;;;12.10;8.18;;;5.70;99.90;;;;;;5037384;28;20048;-81
2021/10/14 04:22:02;;;;;;;12.32;7.53;;;5.80;99.90;;;;;;5022852;28;20036;-81
2021/10/14 04:24:29;;;;;;;10.35;6.97;;;5.70;99.90;;;;;;5036432;28;20025;-81
2021/10/14 04:26:55;;;;;;;9.38;6.68;;;5.80;99.90;;;;;;5018796;28;20151;-81
2021/10/14 04:29:23;;;;;;;8.20;6.45;;;5.80;99.90;;;;;;5036891;28;20037;-83
2021/10/14 04:32:26;;;;;;;14.98;7.78;;;5.80;99.90;;;;;;5022944;28;20079;-85
2021/10/14 04:34:59;;;;;;;10.95;7.65;;;5.80;99.90;;;;;;5022199;28;20025;-85
2021/10/14 04:37:24;;;;;;;13.32;8.00;;;5.80;99.90;;;;;;5018175;28;20417;-85
2021/10/14 04:39:50;;;;;;;16.02;9.25;;;5.80;99.90;;;;;;5031429;28;20034;-84
2021/10/14 04:42:17;;;;;;;14.60;7.55;;;5.80;99.90;;;;;;5060796;28;20028;-84
2021/10/14 04:44:42;;;;;;;9.57;7.18;;;5.80;99.90;;;;;;5054832;28;20221;-84
2021/10/14 04:47:08;;;;;;;9.68;6.88;;;5.80;99.90;;;;;;5055192;28;20450;-83
2021/10/14 04:49:34;;;;;;;11.35;8.27;;;5.80;99.90;;;;;;5024965;28;20113;-83
2021/10/14 04:52:01;;;;;;;13.05;8.10;;;5.80;99.90;;;;;;5046448;28;20013;-82
2021/10/14 04:54:27;;;;;;;11.48;8.05;;;5.70;99.90;;;;;;5038967;28;20114;-82
2021/10/14 04:56:53;;;;;;;10.93;7.75;;;5.70;99.90;;;;;;5024509;28;20100;-82
2021/10/14 04:59:19;;;;;;;10.13;7.28;;;5.70;99.90;;;;;;5051014;28;20044;-82
2021/10/14 05:01:45;;;;;;;9.65;7.25;;;5.80;99.90;;;;;;5056626;28;20073;-81
2021/10/14 05:04:13;;;;;;;10.73;7.43;;;5.80;99.90;;;;;;5025936;28;20089;-83
2021/10/14 05:06:39;;;;;;;11.15;7.43;;;5.80;99.90;;;;;;5020423;28;20490;-84
2021/10/14 05:09:05;;;;;;;11.80;8.00;;;5.90;99.90;;;;;;5033690;28;20093;-84
2021/10/14 05:11:31;;;;;;;10.55;7.18;;;5.90;99.90;;;;;;5034693;28;20076;-83
2021/10/14 05:13:57;;;;;;;12.52;7.57;;;6.00;99.90;;;;;;5057179;28;20033;-83
2021/10/14 05:16:22;;;;;;;10.15;7.00;;;6.00;99.90;;;;;;5065127;28;20017;-83
2021/10/14 05:18:48;;;;;;;12.00;8.38;;;6.00;99.90;;;;;;5050457;28;20025;-83
2021/10/14 05:21:14;;;;;;;12.93;9.00;;;6.00;99.90;;;;;;5075821;28;20037;-83
2021/10/14 05:23:39;;;;;;;15.45;8.13;;;6.10;99.90;;;;;;5068464;28;20047;-84
2021/10/14 05:26:05;;;;;;;12.32;7.95;;;6.10;99.90;;;;;;5063253;28;20059;-84
2021/10/14 05:28:31;;;;;;;13.15;8.20;;;6.10;99.90;;;;;;5043848;28;20021;-84
2021/10/14 05:30:57;;;;;;;14.02;8.43;;;6.10;99.90;;;;;;5046596;28;20544;-84
2021/10/14 05:33:23;;;;;;;12.18;8.27;;;6.10;99.90;;;;;;5010029;28;20029;-84
2021/10/14 05:35:48;;;;;;;13.80;8.40;;;6.10;99.90;;;;;;5049520;28;20493;-82
2021/10/14 05:38:14;;;;;;;12.60;8.95;;;6.20;99.90;;;;;;5041515;28;20037;-82
2021/10/14 05:40:40;;;;;;;12.95;9.20;;;6.10;99.90;;;;;;5039704;28;20022;-82
2021/10/14 05:43:05;;;;;;;11.98;8.45;;;6.20;99.90;;;;;;5056321;28;20025;-82
2021/10/14 05:45:31;;;;;;;16.15;8.93;;;6.20;99.90;;;;;;5038403;28;20441;-82
2021/10/14 05:47:58;;;;;;;13.82;9.23;;;6.20;99.90;;;;;;5024006;28;20045;-81
2021/10/14 05:50:23;;;;;;;13.43;9.10;;;6.20;99.90;;;;;;5024087;28;20056;-82
2021/10/14 05:52:49;;;;;;;11.60;7.75;;;6.30;99.90;;;;;;5041441;28;20025;-82
2021/10/14 05:55:15;;;;;;;15.73;10.05;;;6.30;99.90;;;;;;5021833;28;20032;-81
2021/10/14 05:57:40;;;;;;;13.40;9.18;;;6.40;99.90;;;;;;5039451;28;20052;-81
2021/10/14 06:00:07;;;;;;;9.48;7.20;;;6.40;99.90;;;;;;5022369;28;20026;-81
2021/10/14 06:02:33;;;;;;;11.25;7.72;;;6.50;99.90;;;;;;5023665;28;20110;-81
2021/10/14 06:04:58;;;;;;;14.55;7.97;;;6.60;99.90;;;;;;5021937;28;20466;-81
2021/10/14 06:07:25;;;;;;;11.77;8.23;;;6.60;99.90;;;;;;5040136;28;20022;-82
2021/10/14 06:09:52;;;;;;;15.63;10.30;;;6.60;99.90;;;;;;5020704;28;20080;-82
2021/10/14 06:12:19;;;;;;;15.55;9.32;;;6.70;99.90;;;;;;5053600;28;20063;-81
2021/10/14 06:14:46;;;;;;;12.93;8.23;;;6.70;99.90;;;;;;5041269;28;20101;-82
2021/10/14 06:17:11;;;;;;;13.93;9.10;;;6.70;99.90;;;;;;5038677;28;20026;-82
2021/10/14 06:19:37;;;;;;;14.27;8.85;;;6.80;99.90;;;;;;5039155;28;20029;-81
2021/10/14 06:22:06;;;;;;;12.98;8.43;;;6.90;99.90;;;;;;5039366;28;20521;-82
2021/10/14 06:24:31;;;;;;;10.95;7.63;;;6.90;99.90;;;;;;5037410;28;20041;-82
2021/10/14 06:26:57;;;;;;;9.70;7.22;;;6.90;99.90;;;;;;5021058;28;20025;-83
2021/10/14 06:29:23;;;;;;;9.77;7.65;;;7.00;99.90;;;;;;5038089;28;20030;-81
2021/10/14 06:31:49;;;;;;;10.93;7.72;;;7.10;99.90;;;;;;5039240;28;20040;-81
2021/10/14 06:34:15;;;;;;;10.57;7.80;;;7.20;99.90;;;;;;5023855;28;20033;-82
2021/10/14 06:36:41;;;;;;;10.10;7.10;;;7.30;99.90;;;;;;5042030;28;20064;-83
2021/10/14 06:39:07;;;;;;;10.00;6.78;;;7.40;99.90;;;;;;5020123;28;20370;-82
2021/10/14 06:41:44;;;;;;;9.07;6.43;;;7.40;99.90;;;;;;5031192;28;20398;-81
2021/10/14 06:44:10;;;;;;;11.40;7.53;;;7.50;99.90;;;;;;5025075;28;20420;-81
2021/10/14 06:46:38;;;;;;;12.23;7.75;;;7.50;99.90;;;;;;5042653;28;20478;-82
2021/10/14 06:49:04;;;;;;;13.73;7.70;;;7.50;99.60;;;;;;5063340;28;20126;-81
2021/10/14 06:51:30;;;;;;;8.10;6.18;;;7.50;99.40;;;;;;5058413;28;20079;-82
2021/10/14 06:53:56;;;;;;;9.95;7.22;;;7.60;99.40;;;;;;5058502;28;20079;-83
2021/10/14 06:56:22;;;;;;;9.02;7.15;;;7.70;99.00;;;;;;5048766;28;20029;-83
2021/10/14 06:58:47;;;;;;;12.10;7.40;;;7.60;98.60;;;;;;5021510;28;20037;-82
2021/10/14 07:01:15;;;;;;;10.93;7.82;;;7.60;98.60;;;;;;5023779;28;20021;-81
2021/10/14 07:03:41;;;;;;;7.95;6.57;;;7.60;98.30;;;;;;5023951;28;20110;-82
2021/10/14 07:06:07;;;;;;;10.38;6.43;;;7.70;98.50;;;;;;5053285;28;20022;-81
2021/10/14 07:08:33;;;;;;;8.27;6.03;;;7.80;98.60;;;;;;5053307;28;20017;-82
2021/10/14 07:10:59;;;;;;;7.32;5.85;;;8.10;98.40;;;;;;5044290;28;20045;-82
2021/10/14 07:13:25;;;;;;;8.38;6.13;;;8.20;97.90;;;;;;5045003;28;20367;-81
2021/10/14 07:15:51;;;;;;;9.48;6.57;;;8.30;97.90;;;;;;5040103;28;20057;-81
2021/10/14 07:18:17;;;;;;;9.52;6.78;;;8.40;97.30;;;;;;5055792;28;20042;-81
2021/10/14 07:20:43;;;;;;;9.20;6.28;;;8.60;96.80;;;;;;5041698;28;20025;-82
2021/10/14 07:23:13;;;;;;;9.50;7.00;;;8.70;96.20;;;;;;5056273;28;20029;-82
2021/10/14 07:25:40;;;;;;;8.95;6.30;;;8.90;95.30;;;;;;5051009;28;20025;-82
2021/10/14 07:28:07;;;;;;;9.43;7.13;;;9.00;94.70;;;;;;5039974;28;20026;-82
2021/10/14 07:30:35;;;;;;;8.75;5.80;;;9.10;94.70;;;;;;5022380;28;20029;-82
2021/10/14 07:33:03;;;;;;;6.05;5.22;;;9.20;94.40;;;;;;5020129;28;20033;-82
2021/10/14 07:35:33;;;;;;;9.38;6.18;;;9.30;94.10;;;;;;5038764;28;20029;-82
2021/10/14 07:38:00;;;;;;;7.57;5.65;;;9.40;93.70;;;;;;5023098;28;20091;-82
2021/10/14 07:40:26;;;;;;;8.13;5.65;;;9.50;92.90;;;;;;5020830;28;20021;-82
2021/10/14 07:42:52;;;;;;;6.53;4.65;;;9.50;92.90;;;;;;5048541;28;20013;-82
2021/10/14 07:45:19;;;;;;;7.38;5.47;;;9.60;92.70;;;;;;5060447;22;20041;-79
2021/10/14 07:47:51;;;;;;;9.25;6.28;;;9.70;92.50;;;;;;5063048;28;20575;-79
2021/10/14 07:50:17;;;;;;;;;;;9.60;91.70;;;;;;5047158;28;20036;-80
2021/10/14 07:52:43;;;;;;;10.88;5.45;;;9.60;92.00;;;;;;5065689;28;20292;-80
2021/10/14 07:55:09;;;;;;;7.13;5.43;;;9.60;92.00;;;;;;5079262;28;20074;-82
2021/10/14 07:57:35;;;;;;;9.57;6.03;;;9.70;91.70;;;;;;5086239;28;20031;-80
2021/10/14 08:00:02;;;;;;;6.70;5.47;;;9.80;91.30;;;;;;5067678;28;20066;-81
2021/10/14 08:02:28;;;;;;;6.05;5.22;;;9.90;91.20;;;;;;5089501;28;20021;-78
2021/10/14 08:04:55;;;;;;;5.72;4.43;;;10.10;91.10;;;;;;5089009;28;20084;-80
2021/10/14 08:07:22;;;;;;;6.75;4.50;;;10.30;90.80;;;;;;5070228;28;20040;-79
2021/10/14 08:09:48;;;;;;;9.15;6.05;;;10.60;90.20;;;;;;5065767;28;20024;-78
2021/10/14 08:12:14;;;;;;;7.28;5.22;;;10.80;88.60;;;;;;5059138;28;20055;-80
2021/10/14 08:14:40;;;;;;;7.05;4.95;;;10.90;87.00;;;;;;5077679;28;20088;-78
2021/10/14 08:17:05;;;;;;;5.85;4.38;;;11.00;85.80;;;;;;5078661;28;20535;-78
2021/10/14 08:19:32;;;;;;;4.53;3.45;;;11.10;84.50;;;;;;5080195;28;20060;-79
2021/10/14 08:21:57;;;;;;;4.78;3.55;;;11.10;83.40;;;;;;5075915;28;20016;-79
2021/10/14 08:24:24;;;;;;;5.88;4.20;;;11.10;83.20;;;;;;5077415;28;20108;-79
2021/10/14 08:26:51;;;;;;;4.65;3.47;;;11.00;82.90;;;;;;5078528;28;20012;-79
2021/10/14 08:29:16;;;;;;;5.50;2.95;;;11.00;82.90;;;;;;5078059;28;20104;-79
2021/10/14 08:31:43;;;;;;;4.53;2.97;;;11.00;82.00;;;;;;5078989;28;20110;-78
2021/10/14 08:34:09;;;;;;;5.15;3.53;;;11.10;82.50;;;;;;5085914;28;20031;-78
2021/10/14 08:36:34;;;;;;;5.22;3.60;;;11.10;81.70;;;;;;5091121;28;20032;-78
2021/10/14 08:39:00;;;;;;;5.85;3.47;;;11.20;81.60;;;;;;5073446;28;20028;-79
2021/10/14 08:41:26;;;;;;;3.85;3.10;;;11.40;80.70;;;;;;5080418;28;20282;-78
2021/10/14 08:43:55;;;;;;;3.53;2.70;;;11.40;79.20;;;;;;5055320;28;20020;-78
2021/10/14 08:46:21;;;;;;;5.68;3.00;;;11.40;79.10;;;;;;5061819;28;20028;-78
2021/10/14 08:48:47;;;;;;;4.78;2.70;;;11.30;78.50;;;;;;5079725;28;20031;-77
2021/10/14 08:51:13;;;;;;;3.63;2.45;;;11.20;79.50;;;;;;5065109;28;20111;-79
2021/10/14 08:53:39;;;;;;;3.42;2.67;;;11.10;80.30;;;;;;5085219;28;20429;-79
2021/10/14 08:56:05;;;;;;;5.80;2.20;;;11.20;80.60;;;;;;5082186;28;20020;-78
2021/10/14 08:58:31;;;;;;;3.58;1.90;;;11.30;80.30;;;;;;5082195;28;20376;-78
2021/10/14 09:01:23;;;;;;;4.28;2.45;;;11.40;79.30;;;;;;5053636;28;20029;-77
2021/10/14 09:03:51;;;;;;;7.30;3.25;;;11.40;78.10;;;;;;5050024;28;20453;-78
2021/10/14 09:06:26;;;;;;;3.00;2.20;;;11.40;77.30;;;;;;5048737;28;20120;-77
2021/10/14 09:08:52;;;;;;;5.70;2.55;;;11.40;77.30;;;;;;5068912;28;20025;-79
2021/10/14 09:11:26;;;;;;;5.03;2.22;;;11.60;77.70;;;;;;5052933;28;20045;-80
2021/10/14 09:13:54;;;;;;;3.45;1.90;;;11.70;76.60;;;;;;5069040;28;20060;-79
2021/10/14 09:16:35;;;;;;;2.53;1.75;;;11.90;76.10;;;;;;5071742;28;20033;-80
2021/10/14 09:19:16;;;;;;;2.65;2.15;;;12.00;75.70;;;;;;5066933;28;20024;-78
2021/10/14 09:21:55;;;;;;;8.48;2.92;;;12.10;74.90;;;;;;5095930;28;20016;-78
2021/10/14 09:24:38;;;;;;;4.65;2.50;;;12.10;75.10;;;;;;5094288;28;20108;-80
2021/10/14 09:27:11;;;;;;;2.92;2.13;;;12.10;75.00;;;;;;5097033;28;20039;-81
2021/10/14 09:29:40;;;;;;;;;;;12.30;74.50;;;;;;5088783;28;20439;-81
2021/10/14 09:32:18;;;;;;;4.30;2.22;;;12.40;73.90;;;;;;5071241;28;19965;-81
2021/10/14 09:34:49;;;;;;;4.07;2.30;;;12.50;74.90;;;;;;5070088;28;20024;-81
2021/10/14 09:37:17;;;;;;;2.70;2.33;;;12.70;72.60;;;;;;5071388;28;20448;-79
2021/10/14 09:40:05;;;;;;;3.40;2.28;;;12.80;72.40;;;;;;5088528;28;20031;-81
2021/10/14 09:43:03;;;;;;;3.22;2.15;;;13.10;70.80;;;;;;5071399;28;20021;-81
2021/10/14 09:45:30;;;;;;;2.47;2.28;;;13.10;68.80;;;;;;5073293;28;20029;-79
2021/10/14 09:48:06;;;;;;;2.55;1.80;;;13.10;68.20;;;;;;5068175;28;20021;-79
2021/10/14 09:50:35;;;;;;;2.92;1.30;;;13.20;67.40;;;;;;5067251;28;20017;-79
2021/10/14 09:53:06;;;;;;;1.77;1.58;;;13.30;66.50;;;;;;5068959;28;20048;-79
2021/10/14 09:55:32;;;;;;;3.87;1.67;;;13.40;66.70;;;;;;5074517;28;20067;-80
2021/10/14 09:57:59;;;;;;;2.40;1.73;;;13.50;65.90;;;;;;5073813;28;20037;-80
2021/10/14 10:00:28;;;;;;;3.72;2.35;;;13.40;65.20;;;;;;5057973;28;20045;-78
2021/10/14 10:02:54;;;;;;;3.58;1.95;;;13.30;64.20;;;;;;5072306;28;20025;-80
2021/10/14 10:05:21;;;;;;;3.67;2.58;;;13.00;65.60;;;;;;5054711;28;20029;-80
2021/10/14 10:07:50;;;;;;;3.00;2.10;;;12.80;66.70;;;;;;5064798;28;20128;-80
2021/10/14 10:10:19;;;;;;;3.85;1.75;;;12.80;66.90;;;;;;5088373;28;20021;-81
2021/10/14 10:12:47;;;;;;;2.72;2.45;;;12.70;66.70;;;;;;5086626;28;20042;-80
2021/10/14 10:15:13;;;;;;;3.10;2.05;;;12.70;67.80;;;;;;5069308;28;20039;-80
2021/10/14 10:17:43;;;;;;;7.70;3.60;;;12.70;66.80;;;;;;5089628;28;20033;-79
2021/10/14 10:20:10;;;;;;;4.05;2.28;;;12.70;67.70;;;;;;5071542;28;20424;-81
2021/10/14 10:22:35;;;;;;;4.53;1.92;;;12.60;67.30;;;;;;5086964;28;20024;-80
2021/10/14 10:25:27;;;;;;;3.60;2.30;;;12.60;66.90;;;;;;5068016;28;20028;-80
2021/10/14 10:27:57;;;;;;;2.78;2.25;;;12.50;66.50;;;;;;5068560;28;20020;-81
2021/10/14 10:30:28;;;;;;;5.47;2.50;;;12.40;67.30;;;;;;5085849;28;20358;-81
2021/10/14 10:32:55;;;;;;;4.95;2.55;;;12.40;68.00;;;;;;5068544;28;20077;-79
2021/10/14 10:35:45;;;;;;;4.43;2.15;;;12.40;68.40;;;;;;5086639;28;20516;-80
2021/10/14 10:38:18;;;;;;;3.25;2.45;;;12.50;68.70;;;;;;5070453;28;20040;-80
2021/10/14 10:40:47;;;;;;;2.88;2.00;;;12.60;68.90;;;;;;5088087;28;20076;-80
2021/10/14 10:43:18;;;;;;;5.75;2.35;;;12.70;67.80;;;;;;5069307;28;20012;-80
2021/10/14 10:45:52;;;;;;;5.22;2.90;;;12.80;68.50;;;;;;5085275;28;20032;-80
2021/10/14 10:48:40;;;;;;;6.18;3.35;;;12.80;67.40;;;;;;5085738;28;20028;-80
2021/10/14 10:51:08;;;;;;;3.67;2.50;;;12.80;68.20;;;;;;5068985;28;20051;-81
2021/10/14 10:53:45;;;;;;;5.07;2.90;;;12.80;69.10;;;;;;5069040;28;20024;-80
2021/10/14 10:56:31;;;;;;;3.22;2.42;;;13.00;68.10;;;;;;5070895;28;20033;-81
2021/10/14 10:58:57;;;;;;;5.97;3.05;;;13.10;66.60;;;;;;5066085;28;20024;-81
2021/10/14 11:01:24;;;;;;;2.72;2.20;;;13.10;66.90;;;;;;5084265;28;20025;-81
2021/10/14 11:04:03;;;;;;;6.85;2.47;;;13.00;65.60;;;;;;5086294;28;20024;-80
2021/10/14 11:06:31;;;;;;;4.00;2.70;;;12.90;66.40;;;;;;5075868;28;20099;-80
2021/10/14 11:09:11;;;;;;;3.55;2.30;;;12.80;65.80;;;;;;5074561;28;20392;-81
2021/10/14 11:11:37;;;;;;;3.03;2.40;;;12.80;66.20;;;;;;5090404;28;20354;-80
2021/10/14 11:14:04;;;;;;;2.60;1.70;;;13.00;66.60;;;;;;5073745;28;20094;-81
2021/10/14 11:16:31;;;;;;;3.45;2.30;;;13.20;66.40;;;;;;5050396;28;20381;-81
2021/10/14 11:18:58;;;;;;;3.58;2.30;;;13.60;65.90;;;;;;5028387;28;20025;-81
2021/10/14 11:21:26;;;;;;;3.78;2.47;;;13.90;63.90;;;;;;5046199;28;20109;-81
2021/10/14 11:23:58;;;;;;;3.53;2.30;;;14.00;62.50;;;;;;5044920;28;20013;-82
2021/10/14 11:26:42;;;;;;;4.72;2.30;;;14.10;63.80;;;;;;5028152;28;20021;-81
2021/10/14 11:29:22;;;;;;;3.58;2.33;;;14.30;62.70;;;;;;5027778;28;20029;-82
2021/10/14 11:32:02;;;;;;;2.47;1.88;;;14.40;62.60;;;;;;5026858;28;20091;-81
2021/10/14 11:34:29;;;;;;;2.97;2.05;;;14.50;62.50;;;;;;5027014;28;20397;-81
2021/10/14 11:37:03;;;;;;;3.75;2.20;;;14.50;62.20;;;;;;5028238;28;20045;-81
2021/10/14 11:39:37;;;;;;;2.92;1.88;;;14.60;62.00;;;;;;5026716;28;20500;-81
2021/10/14 11:42:09;;;;;;;3.10;1.52;;;14.60;61.70;;;;;;5048463;28;20185;-80
2021/10/14 11:44:37;;;;;;;7.93;2.08;;;14.70;60.50;;;;;;5068505;28;20039;-81
2021/10/14 11:47:12;;;;;;;5.70;2.55;;;14.60;58.30;;;;;;5086418;28;20488;-81
2021/10/14 11:49:38;;;;;;;3.85;2.20;;;14.50;59.20;;;;;;5091315;28;20093;-80
2021/10/14 11:52:08;;;;;;;15.95;3.75;;;14.60;59.70;;;;;;5092790;28;20226;-81
2021/10/14 11:54:38;;;;;;;10.10;2.50;;;14.70;59.60;;;;;;5091766;28;20040;-80
2021/10/14 11:57:06;;;;;;;3.97;2.53;;;14.70;59.20;;;;;;5093261;28;20080;-78
2021/10/14 11:59:33;;;;;;;2.42;1.95;;;14.60;59.90;;;;;;5071490;28;20020;-81
2021/10/14 12:02:09;;;;;;;5.20;1.95;;;14.70;60.30;;;;;;5076663;28;20009;-80
2021/10/14 12:04:49;;;;;;;2.53;1.70;;;14.80;58.60;;;;;;5092584;28;20382;-81
2021/10/14 12:07:23;;;;;;;4.25;1.40;;;14.70;59.30;;;;;;5085152;28;20023;-83
2021/10/14 12:09:51;;;;;;;2.78;1.73;;;14.80;59.10;;;;;;5077317;28;20025;-82
2021/10/14 12:12:19;;;;;;;2.38;1.60;;;14.80;59.10;;;;;;5065129;28;20072;-80
2021/10/14 12:14:47;;;;;;;4.07;1.98;;;14.90;58.70;;;;;;5063733;28;20040;-81
2021/10/14 12:17:18;;;;;;;7.32;2.00;;;15.00;58.60;;;;;;5049459;28;20041;-80
2021/10/14 12:19:52;;;;;;;4.47;1.67;;;14.90;57.70;;;;;;5056714;28;20032;-80
2021/10/14 12:22:20;;;;;;;4.65;2.00;;;14.80;58.30;;;;;;5056430;28;20036;-81
2021/10/14 12:24:58;;;;;;;4.47;1.88;;;14.70;57.80;;;;;;5049429;28;20021;-80
2021/10/14 12:27:51;;;;;;;7.65;2.08;;;14.60;58.50;;;;;;5052444;28;20021;-82
2021/10/14 12:30:20;;;;;;;4.97;1.80;;;14.40;58.90;;;;;;5056685;28;20096;-80
2021/10/14 12:32:47;;;;;;;4.50;1.38;;;14.20;59.30;;;;;;5069204;28;20039;-81
2021/10/14 12:35:14;;;;;;;2.13;1.45;;;14.20;59.00;;;;;;5048596;28;20025;-80
2021/10/14 12:37:40;;;;;;;5.25;2.10;;;14.10;58.50;;;;;;5048441;28;20031;-80
2021/10/14 12:40:24;;;;;;;2.53;1.50;;;14.10;58.40;;;;;;5044758;28;20029;-82
2021/10/14 12:42:58;;;;;;;3.58;1.88;;;14.20;58.80;;;;;;5081046;28;20384;-81
2021/10/14 12:45:43;;;;;;;3.40;2.55;;;14.20;58.80;;;;;;5083049;28;20170;-79
2021/10/14 12:48:17;;;;;;;1.75;1.60;;;14.20;58.50;;;;;;5085420;28;20097;-79
2021/10/14 12:54:05;;;;;;;2.53;1.58;;;14.20;59.30;;;;;;5088902;28;20033;-78
2021/10/14 12:56:42;;;;;;;5.55;1.73;;;14.20;59.40;;;;;;5075432;28;20025;-80
2021/10/14 12:59:10;;;;;;;2.65;1.60;;;14.30;59.20;;;;;;5089873;28;20059;-79
2021/10/14 13:01:40;;;;;;;2.53;1.80;;;14.40;59.30;;;;;;5082834;28;20028;-79